Kearney Regional Airport


Codes: KEAR/EAR
Name: Kearney Regional Airport
City: Kearney
Country: United States
Elevation: 2131 ft.
Wikipedia:

Photos at Kearney Regional Airport


   Photos courtesy of SpottingLog. You can add your own sightings and photos by signing up for a free trial today.



No photos found.

Weather at Kearney Regional Airport


Time (UTC)DescriptionTempratureWindCloud coverageVisibilityPressureHumidity
21-Feb-2024 03:00Clear Sky12°C7 mph, NW0%10000m1012hPa39%
21-Feb-2024 06:00Clear Sky11°C4 mph, NW5%10000m1013hPa43%
21-Feb-2024 09:00Broken Clouds9°C4 mph, NE67%10000m1013hPa49%
21-Feb-2024 12:00Overcast Clouds6°C7 mph, NE88%10000m1013hPa56%
21-Feb-2024 15:00Broken Clouds8°C4 mph, E56%10000m1012hPa50%
21-Feb-2024 18:00Broken Clouds14°C7 mph, E66%10000m1009hPa34%
21-Feb-2024 21:00Scattered Clouds17°C4 mph, E38%10000m1006hPa32%
22-Feb-2024 00:00Broken Clouds13°C7 mph, NE55%10000m1005hPa45%
22-Feb-2024 03:00Overcast Clouds11°C7 mph, NE100%10000m1007hPa53%
22-Feb-2024 06:00Overcast Clouds9°C7 mph, NE100%10000m1008hPa54%
22-Feb-2024 09:00Overcast Clouds8°C9 mph, N100%10000m1010hPa57%
22-Feb-2024 12:00Overcast Clouds8°C13 mph, N100%10000m1012hPa60%
22-Feb-2024 15:00Overcast Clouds8°C13 mph, N100%10000m1015hPa58%
22-Feb-2024 18:00Broken Clouds13°C16 mph, NW70%10000m1015hPa36%
22-Feb-2024 21:00Broken Clouds14°C16 mph, NW72%10000m1013hPa32%
23-Feb-2024 00:00Scattered Clouds12°C9 mph, NW38%10000m1014hPa39%
23-Feb-2024 03:00Clear Sky8°C7 mph, N2%10000m1015hPa49%
23-Feb-2024 06:00Clear Sky6°C7 mph, NW1%10000m1016hPa54%
23-Feb-2024 09:00Clear Sky6°C7 mph, W0%10000m1016hPa55%
23-Feb-2024 12:00Clear Sky5°C9 mph, NW1%10000m1016hPa59%
23-Feb-2024 15:00Clear Sky7°C11 mph, NW2%10000m1016hPa51%
23-Feb-2024 18:00Clear Sky13°C18 mph, NW3%10000m1014hPa30%
23-Feb-2024 21:00Scattered Clouds14°C18 mph, NW27%10000m1013hPa28%
24-Feb-2024 00:00Scattered Clouds11°C13 mph, NW32%10000m1013hPa34%
24-Feb-2024 03:00Clear Sky7°C7 mph, NW0%10000m1016hPa45%
24-Feb-2024 06:00Clear Sky6°C7 mph, NW0%10000m1017hPa48%
24-Feb-2024 09:00Clear Sky5°C7 mph, W0%10000m1018hPa53%
24-Feb-2024 12:00Clear Sky4°C4 mph, W0%10000m1017hPa54%
24-Feb-2024 15:00Clear Sky6°C11 mph, SW0%10000m1017hPa47%
24-Feb-2024 18:00Clear Sky14°C13 mph, SW1%10000m1012hPa24%
24-Feb-2024 21:00Clear Sky17°C20 mph, W0%10000m1008hPa17%
25-Feb-2024 00:00Clear Sky14°C9 mph, W0%10000m1007hPa27%
25-Feb-2024 03:00Clear Sky10°C4 mph, NW1%10000m1009hPa32%
25-Feb-2024 06:00Clear Sky8°C4 mph, SW1%10000m1008hPa33%
25-Feb-2024 09:00Clear Sky6°C9 mph, W1%10000m1008hPa39%
25-Feb-2024 12:00Clear Sky5°C9 mph, NW0%10000m1008hPa47%
25-Feb-2024 15:00Clear Sky8°C7 mph, NW0%10000m1009hPa40%
25-Feb-2024 18:00Clear Sky15°C9 mph, NW0%10000m1007hPa25%
25-Feb-2024 21:00Clear Sky17°C9 mph, NW0%10000m1006hPa21%
26-Feb-2024 00:00Clear Sky14°C2 mph, NE0%10000m1006hPa28%